sensor_id;sensor_type;location;lat;lon;timestamp;P1;durP1;ratioP1;P2;durP2;ratioP2
78053;SDS011;67726;45.636;11.752;2023-05-10T00:00:43;7.75;;;2.67;;
78053;SDS011;67726;45.636;11.752;2023-05-10T00:03:09;5.40;;;2.53;;
78053;SDS011;67726;45.636;11.752;2023-05-10T00:05:34;5.57;;;2.90;;
78053;SDS011;67726;45.636;11.752;2023-05-10T00:08:00;5.63;;;2.70;;
78053;SDS011;67726;45.636;11.752;2023-05-10T00:10:26;7.10;;;2.53;;
78053;SDS011;67726;45.636;11.752;2023-05-10T00:12:51;6.03;;;2.67;;
78053;SDS011;67726;45.636;11.752;2023-05-10T00:15:17;6.10;;;2.77;;
78053;SDS011;67726;45.636;11.752;2023-05-10T00:17:43;5.70;;;2.80;;
78053;SDS011;67726;45.636;11.752;2023-05-10T00:20:08;6.00;;;2.80;;
78053;SDS011;67726;45.636;11.752;2023-05-10T00:22:35;6.55;;;3.10;;
78053;SDS011;67726;45.636;11.752;2023-05-10T00:25:00;9.70;;;3.13;;
78053;SDS011;67726;45.636;11.752;2023-05-10T00:27:26;5.45;;;2.85;;
78053;SDS011;67726;45.636;11.752;2023-05-10T00:29:52;5.10;;;2.50;;
78053;SDS011;67726;45.636;11.752;2023-05-10T00:32:17;6.32;;;2.95;;
78053;SDS011;67726;45.636;11.752;2023-05-10T00:34:43;6.23;;;3.00;;
78053;SDS011;67726;45.636;11.752;2023-05-10T00:37:08;5.57;;;2.73;;
78053;SDS011;67726;45.636;11.752;2023-05-10T00:39:34;5.53;;;2.78;;
78053;SDS011;67726;45.636;11.752;2023-05-10T00:42:00;5.70;;;2.83;;
78053;SDS011;67726;45.636;11.752;2023-05-10T00:44:25;7.38;;;2.90;;
78053;SDS011;67726;45.636;11.752;2023-05-10T00:46:51;7.13;;;2.60;;
78053;SDS011;67726;45.636;11.752;2023-05-10T00:49:18;5.20;;;2.53;;
78053;SDS011;67726;45.636;11.752;2023-05-10T00:51:45;8.15;;;3.20;;
78053;SDS011;67726;45.636;11.752;2023-05-10T00:54:11;7.17;;;3.27;;
78053;SDS011;67726;45.636;11.752;2023-05-10T00:56:38;8.65;;;3.20;;
78053;SDS011;67726;45.636;11.752;2023-05-10T00:59:05;5.38;;;3.03;;
78053;SDS011;67726;45.636;11.752;2023-05-10T01:01:31;7.43;;;3.30;;
78053;SDS011;67726;45.636;11.752;2023-05-10T01:03:57;11.37;;;2.83;;
78053;SDS011;67726;45.636;11.752;2023-05-10T01:06:23;5.68;;;2.58;;
78053;SDS011;67726;45.636;11.752;2023-05-10T01:08:49;7.82;;;3.25;;
78053;SDS011;67726;45.636;11.752;2023-05-10T01:11:15;9.03;;;3.40;;
78053;SDS011;67726;45.636;11.752;2023-05-10T01:13:41;8.02;;;3.50;;
78053;SDS011;67726;45.636;11.752;2023-05-10T01:16:08;7.55;;;3.13;;
78053;SDS011;67726;45.636;11.752;2023-05-10T01:18:35;5.87;;;3.00;;
78053;SDS011;67726;45.636;11.752;2023-05-10T01:21:14;7.45;;;2.83;;
78053;SDS011;67726;45.636;11.752;2023-05-10T01:34:54;8.07;;;3.43;;
78053;SDS011;67726;45.636;11.752;2023-05-10T01:37:38;12.52;;;3.45;;
78053;SDS011;67726;45.636;11.752;2023-05-10T01:42:48;8.38;;;3.40;;
78053;SDS011;67726;45.636;11.752;2023-05-10T01:45:19;6.47;;;3.20;;
78053;SDS011;67726;45.636;11.752;2023-05-10T01:47:56;6.50;;;3.33;;
78053;SDS011;67726;45.636;11.752;2023-05-10T01:50:43;6.57;;;3.63;;
78053;SDS011;67726;45.636;11.752;2023-05-10T01:53:11;6.57;;;3.55;;
78053;SDS011;67726;45.636;11.752;2023-05-10T01:55:46;9.18;;;3.58;;
78053;SDS011;67726;45.636;11.752;2023-05-10T01:58:19;6.32;;;3.30;;
78053;SDS011;67726;45.636;11.752;2023-05-10T02:00:47;8.03;;;4.03;;
78053;SDS011;67726;45.636;11.752;2023-05-10T02:03:15;6.40;;;3.67;;
78053;SDS011;67726;45.636;11.752;2023-05-10T02:05:43;7.93;;;3.78;;
78053;SDS011;67726;45.636;11.752;2023-05-10T02:08:11;6.45;;;3.78;;
78053;SDS011;67726;45.636;11.752;2023-05-10T02:10:38;7.28;;;3.70;;
78053;SDS011;67726;45.636;11.752;2023-05-10T02:13:05;9.90;;;4.37;;
78053;SDS011;67726;45.636;11.752;2023-05-10T02:15:32;7.43;;;3.97;;
78053;SDS011;67726;45.636;11.752;2023-05-10T02:17:59;6.60;;;3.70;;
78053;SDS011;67726;45.636;11.752;2023-05-10T02:20:27;8.57;;;3.92;;
78053;SDS011;67726;45.636;11.752;2023-05-10T02:22:54;8.18;;;3.75;;
78053;SDS011;67726;45.636;11.752;2023-05-10T02:25:21;7.67;;;3.80;;
78053;SDS011;67726;45.636;11.752;2023-05-10T02:27:48;6.43;;;3.90;;
78053;SDS011;67726;45.636;11.752;2023-05-10T02:30:15;7.75;;;3.90;;
78053;SDS011;67726;45.636;11.752;2023-05-10T02:32:43;6.43;;;3.70;;
78053;SDS011;67726;45.636;11.752;2023-05-10T02:35:10;10.82;;;4.03;;
78053;SDS011;67726;45.636;11.752;2023-05-10T02:37:37;6.83;;;3.97;;
78053;SDS011;67726;45.636;11.752;2023-05-10T02:40:05;7.43;;;3.90;;
78053;SDS011;67726;45.636;11.752;2023-05-10T02:42:32;8.18;;;3.65;;
78053;SDS011;67726;45.636;11.752;2023-05-10T02:45:00;6.97;;;3.38;;
78053;SDS011;67726;45.636;11.752;2023-05-10T02:47:28;6.25;;;3.22;;
78053;SDS011;67726;45.636;11.752;2023-05-10T02:49:54;6.30;;;3.63;;
78053;SDS011;67726;45.636;11.752;2023-05-10T02:52:25;7.15;;;3.20;;
78053;SDS011;67726;45.636;11.752;2023-05-10T02:54:54;6.53;;;3.53;;
78053;SDS011;67726;45.636;11.752;2023-05-10T02:57:25;7.25;;;3.38;;
78053;SDS011;67726;45.636;11.752;2023-05-10T02:59:53;5.67;;;3.00;;
78053;SDS011;67726;45.636;11.752;2023-05-10T03:02:19;7.45;;;3.47;;
78053;SDS011;67726;45.636;11.752;2023-05-10T03:04:45;7.75;;;3.70;;
78053;SDS011;67726;45.636;11.752;2023-05-10T03:07:11;6.10;;;3.43;;
78053;SDS011;67726;45.636;11.752;2023-05-10T03:09:37;7.30;;;3.50;;
78053;SDS011;67726;45.636;11.752;2023-05-10T03:12:04;6.35;;;3.45;;
78053;SDS011;67726;45.636;11.752;2023-05-10T03:19:54;7.90;;;3.50;;
78053;SDS011;67726;45.636;11.752;2023-05-10T03:22:31;6.70;;;3.05;;
78053;SDS011;67726;45.636;11.752;2023-05-10T03:25:00;7.32;;;3.38;;
78053;SDS011;67726;45.636;11.752;2023-05-10T03:27:30;6.27;;;3.47;;
78053;SDS011;67726;45.636;11.752;2023-05-10T03:29:57;7.97;;;3.60;;
78053;SDS011;67726;45.636;11.752;2023-05-10T03:32:23;8.18;;;3.95;;
78053;SDS011;67726;45.636;11.752;2023-05-10T03:34:49;7.85;;;3.83;;
78053;SDS011;67726;45.636;11.752;2023-05-10T03:37:15;9.50;;;3.60;;
78053;SDS011;67726;45.636;11.752;2023-05-10T03:39:40;9.73;;;3.67;;
78053;SDS011;67726;45.636;11.752;2023-05-10T03:42:06;7.77;;;3.93;;
78053;SDS011;67726;45.636;11.752;2023-05-10T03:44:32;7.50;;;3.95;;
78053;SDS011;67726;45.636;11.752;2023-05-10T03:46:58;6.23;;;3.60;;
78053;SDS011;67726;45.636;11.752;2023-05-10T03:49:24;8.98;;;3.70;;
78053;SDS011;67726;45.636;11.752;2023-05-10T03:51:49;8.98;;;3.60;;
78053;SDS011;67726;45.636;11.752;2023-05-10T03:54:15;6.90;;;3.10;;
78053;SDS011;67726;45.636;11.752;2023-05-10T03:56:41;7.40;;;3.30;;
78053;SDS011;67726;45.636;11.752;2023-05-10T03:59:06;6.93;;;3.67;;
78053;SDS011;67726;45.636;11.752;2023-05-10T04:01:34;8.10;;;3.60;;
78053;SDS011;67726;45.636;11.752;2023-05-10T04:04:00;8.55;;;3.92;;
78053;SDS011;67726;45.636;11.752;2023-05-10T04:06:25;7.20;;;3.80;;
78053;SDS011;67726;45.636;11.752;2023-05-10T04:08:51;7.13;;;3.60;;
78053;SDS011;67726;45.636;11.752;2023-05-10T04:11:17;7.00;;;3.30;;
78053;SDS011;67726;45.636;11.752;2023-05-10T04:13:42;5.88;;;3.28;;
78053;SDS011;67726;45.636;11.752;2023-05-10T04:16:08;5.50;;;3.20;;
78053;SDS011;67726;45.636;11.752;2023-05-10T04:18:34;9.63;;;3.67;;
78053;SDS011;67726;45.636;11.752;2023-05-10T04:21:00;6.10;;;3.20;;
78053;SDS011;67726;45.636;11.752;2023-05-10T04:23:26;7.28;;;3.30;;
78053;SDS011;67726;45.636;11.752;2023-05-10T04:25:52;8.27;;;3.40;;
78053;SDS011;67726;45.636;11.752;2023-05-10T04:28:23;7.45;;;3.53;;
78053;SDS011;67726;45.636;11.752;2023-05-10T04:30:49;6.50;;;3.50;;
78053;SDS011;67726;45.636;11.752;2023-05-10T04:33:14;8.43;;;3.67;;
78053;SDS011;67726;45.636;11.752;2023-05-10T04:35:40;7.07;;;3.75;;
78053;SDS011;67726;45.636;11.752;2023-05-10T04:38:06;7.43;;;4.50;;
78053;SDS011;67726;45.636;11.752;2023-05-10T04:40:31;7.53;;;3.45;;
78053;SDS011;67726;45.636;11.752;2023-05-10T04:42:57;6.47;;;3.50;;
78053;SDS011;67726;45.636;11.752;2023-05-10T04:45:23;7.40;;;3.50;;
78053;SDS011;67726;45.636;11.752;2023-05-10T04:47:48;6.60;;;3.67;;
78053;SDS011;67726;45.636;11.752;2023-05-10T04:50:14;7.03;;;3.97;;
78053;SDS011;67726;45.636;11.752;2023-05-10T04:52:40;7.27;;;3.53;;
78053;SDS011;67726;45.636;11.752;2023-05-10T04:55:06;7.97;;;3.80;;
78053;SDS011;67726;45.636;11.752;2023-05-10T04:57:34;6.68;;;3.75;;
78053;SDS011;67726;45.636;11.752;2023-05-10T05:00:00;6.23;;;3.30;;
78053;SDS011;67726;45.636;11.752;2023-05-10T05:02:25;6.53;;;3.40;;
78053;SDS011;67726;45.636;11.752;2023-05-10T05:04:51;7.57;;;3.87;;
78053;SDS011;67726;45.636;11.752;2023-05-10T05:07:17;7.22;;;3.78;;
78053;SDS011;67726;45.636;11.752;2023-05-10T05:09:42;6.87;;;4.00;;
78053;SDS011;67726;45.636;11.752;2023-05-10T05:12:08;10.20;;;3.87;;
78053;SDS011;67726;45.636;11.752;2023-05-10T05:14:38;6.80;;;3.60;;
78053;SDS011;67726;45.636;11.752;2023-05-10T05:17:05;9.27;;;4.30;;
78053;SDS011;67726;45.636;11.752;2023-05-10T05:19:30;7.43;;;4.10;;
78053;SDS011;67726;45.636;11.752;2023-05-10T05:21:56;8.48;;;3.80;;
78053;SDS011;67726;45.636;11.752;2023-05-10T05:24:22;8.13;;;4.18;;
78053;SDS011;67726;45.636;11.752;2023-05-10T05:26:48;8.30;;;3.80;;
78053;SDS011;67726;45.636;11.752;2023-05-10T05:29:13;6.97;;;3.90;;
78053;SDS011;67726;45.636;11.752;2023-05-10T05:31:39;8.60;;;4.13;;
78053;SDS011;67726;45.636;11.752;2023-05-10T05:34:05;7.10;;;4.15;;
78053;SDS011;67726;45.636;11.752;2023-05-10T05:36:30;8.20;;;4.90;;
78053;SDS011;67726;45.636;11.752;2023-05-10T05:38:56;6.78;;;4.35;;
78053;SDS011;67726;45.636;11.752;2023-05-10T05:41:22;7.45;;;4.28;;
78053;SDS011;67726;45.636;11.752;2023-05-10T05:43:49;7.70;;;4.33;;
78053;SDS011;67726;45.636;11.752;2023-05-10T05:46:15;7.22;;;4.25;;
78053;SDS011;67726;45.636;11.752;2023-05-10T05:48:40;8.53;;;4.60;;
78053;SDS011;67726;45.636;11.752;2023-05-10T05:51:06;7.95;;;4.80;;
78053;SDS011;67726;45.636;11.752;2023-05-10T05:53:32;10.90;;;4.97;;
78053;SDS011;67726;45.636;11.752;2023-05-10T05:55:58;9.18;;;5.07;;
78053;SDS011;67726;45.636;11.752;2023-05-10T05:58:27;9.67;;;5.60;;
78053;SDS011;67726;45.636;11.752;2023-05-10T06:00:52;8.30;;;5.20;;
78053;SDS011;67726;45.636;11.752;2023-05-10T06:03:19;9.90;;;4.80;;
78053;SDS011;67726;45.636;11.752;2023-05-10T06:05:45;10.68;;;5.63;;
78053;SDS011;67726;45.636;11.752;2023-05-10T06:08:10;11.37;;;4.60;;
78053;SDS011;67726;45.636;11.752;2023-05-10T06:10:36;9.93;;;5.40;;
78053;SDS011;67726;45.636;11.752;2023-05-10T06:13:02;9.07;;;5.20;;
78053;SDS011;67726;45.636;11.752;2023-05-10T06:15:27;8.13;;;4.75;;
78053;SDS011;67726;45.636;11.752;2023-05-10T06:17:53;7.73;;;4.67;;
78053;SDS011;67726;45.636;11.752;2023-05-10T06:20:19;7.97;;;4.30;;
78053;SDS011;67726;45.636;11.752;2023-05-10T06:22:44;8.87;;;4.73;;
78053;SDS011;67726;45.636;11.752;2023-05-10T06:25:10;8.25;;;4.50;;
78053;SDS011;67726;45.636;11.752;2023-05-10T06:27:36;8.70;;;5.00;;
78053;SDS011;67726;45.636;11.752;2023-05-10T06:30:02;8.70;;;5.03;;
78053;SDS011;67726;45.636;11.752;2023-05-10T06:32:28;8.82;;;4.55;;
78053;SDS011;67726;45.636;11.752;2023-05-10T06:34:54;9.33;;;5.13;;
78053;SDS011;67726;45.636;11.752;2023-05-10T06:37:20;8.35;;;4.80;;
78053;SDS011;67726;45.636;11.752;2023-05-10T06:39:45;8.87;;;5.13;;
78053;SDS011;67726;45.636;11.752;2023-05-10T06:42:11;9.68;;;5.20;;
78053;SDS011;67726;45.636;11.752;2023-05-10T06:44:36;9.60;;;5.37;;
78053;SDS011;67726;45.636;11.752;2023-05-10T06:47:02;9.70;;;5.93;;
78053;SDS011;67726;45.636;11.752;2023-05-10T06:49:28;12.03;;;5.97;;
78053;SDS011;67726;45.636;11.752;2023-05-10T06:51:55;11.87;;;6.10;;
78053;SDS011;67726;45.636;11.752;2023-05-10T06:54:21;14.32;;;7.00;;
78053;SDS011;67726;45.636;11.752;2023-05-10T06:56:46;12.30;;;6.35;;
78053;SDS011;67726;45.636;11.752;2023-05-10T06:59:12;13.00;;;6.30;;
78053;SDS011;67726;45.636;11.752;2023-05-10T07:01:38;12.25;;;6.63;;
78053;SDS011;67726;45.636;11.752;2023-05-10T07:04:04;11.20;;;6.15;;
78053;SDS011;67726;45.636;11.752;2023-05-10T07:06:30;11.07;;;6.20;;
78053;SDS011;67726;45.636;11.752;2023-05-10T07:08:55;10.32;;;5.88;;
78053;SDS011;67726;45.636;11.752;2023-05-10T07:11:22;9.83;;;5.70;;
78053;SDS011;67726;45.636;11.752;2023-05-10T07:13:47;9.73;;;6.38;;
78053;SDS011;67726;45.636;11.752;2023-05-10T07:16:13;11.27;;;7.00;;
78053;SDS011;67726;45.636;11.752;2023-05-10T07:18:38;13.27;;;7.25;;
78053;SDS011;67726;45.636;11.752;2023-05-10T07:21:04;11.23;;;7.03;;
78053;SDS011;67726;45.636;11.752;2023-05-10T07:23:30;11.77;;;5.83;;
78053;SDS011;67726;45.636;11.752;2023-05-10T07:25:55;9.43;;;5.90;;
78053;SDS011;67726;45.636;11.752;2023-05-10T07:28:22;11.18;;;5.55;;
78053;SDS011;67726;45.636;11.752;2023-05-10T07:30:49;11.55;;;6.45;;
78053;SDS011;67726;45.636;11.752;2023-05-10T07:33:15;11.63;;;5.80;;
78053;SDS011;67726;45.636;11.752;2023-05-10T07:35:41;10.55;;;5.78;;
78053;SDS011;67726;45.636;11.752;2023-05-10T07:38:07;9.40;;;6.03;;
78053;SDS011;67726;45.636;11.752;2023-05-10T07:40:33;10.85;;;6.65;;
78053;SDS011;67726;45.636;11.752;2023-05-10T07:42:59;10.40;;;6.00;;
78053;SDS011;67726;45.636;11.752;2023-05-10T07:45:27;10.88;;;6.15;;
78053;SDS011;67726;45.636;11.752;2023-05-10T07:47:53;9.05;;;5.75;;
78053;SDS011;67726;45.636;11.752;2023-05-10T07:50:19;11.27;;;5.47;;
78053;SDS011;67726;45.636;11.752;2023-05-10T07:52:46;10.30;;;6.07;;
78053;SDS011;67726;45.636;11.752;2023-05-10T07:55:11;9.13;;;5.63;;
78053;SDS011;67726;45.636;11.752;2023-05-10T07:57:37;9.80;;;5.57;;
78053;SDS011;67726;45.636;11.752;2023-05-10T08:00:04;10.63;;;6.43;;
78053;SDS011;67726;45.636;11.752;2023-05-10T08:02:30;11.55;;;5.97;;
78053;SDS011;67726;45.636;11.752;2023-05-10T08:04:56;10.90;;;6.40;;
78053;SDS011;67726;45.636;11.752;2023-05-10T08:07:22;9.80;;;6.50;;
78053;SDS011;67726;45.636;11.752;2023-05-10T08:09:49;10.82;;;6.30;;
78053;SDS011;67726;45.636;11.752;2023-05-10T08:12:14;11.63;;;6.80;;
78053;SDS011;67726;45.636;11.752;2023-05-10T08:14:40;20.05;;;10.00;;
78053;SDS011;67726;45.636;11.752;2023-05-10T08:17:06;11.77;;;7.00;;
78053;SDS011;67726;45.636;11.752;2023-05-10T08:19:32;12.18;;;6.13;;
78053;SDS011;67726;45.636;11.752;2023-05-10T08:21:57;9.83;;;5.83;;
78053;SDS011;67726;45.636;11.752;2023-05-10T08:24:23;10.85;;;6.00;;
78053;SDS011;67726;45.636;11.752;2023-05-10T08:26:49;13.10;;;6.07;;
78053;SDS011;67726;45.636;11.752;2023-05-10T08:29:14;11.00;;;6.22;;
78053;SDS011;67726;45.636;11.752;2023-05-10T08:31:40;11.20;;;5.63;;
78053;SDS011;67726;45.636;11.752;2023-05-10T08:34:06;10.13;;;6.07;;
78053;SDS011;67726;45.636;11.752;2023-05-10T08:36:31;11.90;;;6.43;;
78053;SDS011;67726;45.636;11.752;2023-05-10T08:38:57;9.40;;;5.90;;
78053;SDS011;67726;45.636;11.752;2023-05-10T08:41:24;11.35;;;6.47;;
78053;SDS011;67726;45.636;11.752;2023-05-10T08:43:51;10.65;;;6.18;;
78053;SDS011;67726;45.636;11.752;2023-05-10T08:46:18;11.40;;;5.97;;
78053;SDS011;67726;45.636;11.752;2023-05-10T08:48:46;11.38;;;6.72;;
78053;SDS011;67726;45.636;11.752;2023-05-10T08:51:17;10.75;;;6.22;;
78053;SDS011;67726;45.636;11.752;2023-05-10T08:53:46;10.32;;;5.80;;
78053;SDS011;67726;45.636;11.752;2023-05-10T08:56:12;10.80;;;6.43;;
78053;SDS011;67726;45.636;11.752;2023-05-10T08:58:38;9.05;;;5.80;;
78053;SDS011;67726;45.636;11.752;2023-05-10T09:01:04;15.98;;;7.75;;
78053;SDS011;67726;45.636;11.752;2023-05-10T09:03:31;12.82;;;6.63;;
78053;SDS011;67726;45.636;11.752;2023-05-10T09:05:57;10.80;;;6.27;;
78053;SDS011;67726;45.636;11.752;2023-05-10T09:08:23;13.35;;;7.03;;
78053;SDS011;67726;45.636;11.752;2023-05-10T09:10:50;10.27;;;6.60;;
78053;SDS011;67726;45.636;11.752;2023-05-10T09:13:17;10.65;;;6.28;;
78053;SDS011;67726;45.636;11.752;2023-05-10T09:15:44;10.27;;;6.88;;
78053;SDS011;67726;45.636;11.752;2023-05-10T09:18:11;11.47;;;6.63;;
78053;SDS011;67726;45.636;11.752;2023-05-10T09:20:37;10.25;;;6.30;;
78053;SDS011;67726;45.636;11.752;2023-05-10T09:23:02;10.40;;;6.30;;
78053;SDS011;67726;45.636;11.752;2023-05-10T09:25:28;11.47;;;6.27;;
78053;SDS011;67726;45.636;11.752;2023-05-10T09:27:54;13.13;;;5.93;;
78053;SDS011;67726;45.636;11.752;2023-05-10T09:30:27;10.57;;;6.35;;
78053;SDS011;67726;45.636;11.752;2023-05-10T09:32:54;9.30;;;5.70;;
78053;SDS011;67726;45.636;11.752;2023-05-10T09:35:21;10.55;;;6.45;;
78053;SDS011;67726;45.636;11.752;2023-05-10T09:37:49;10.05;;;6.10;;
78053;SDS011;67726;45.636;11.752;2023-05-10T09:40:19;9.82;;;6.38;;
78053;SDS011;67726;45.636;11.752;2023-05-10T09:45:19;11.77;;;5.80;;
78053;SDS011;67726;45.636;11.752;2023-05-10T09:47:45;12.57;;;6.82;;
78053;SDS011;67726;45.636;11.752;2023-05-10T09:50:11;10.68;;;6.72;;
78053;SDS011;67726;45.636;11.752;2023-05-10T09:52:47;11.97;;;6.33;;
78053;SDS011;67726;45.636;11.752;2023-05-10T09:55:19;10.87;;;6.10;;
78053;SDS011;67726;45.636;11.752;2023-05-10T09:57:47;11.95;;;7.95;;
78053;SDS011;67726;45.636;11.752;2023-05-10T10:00:17;13.48;;;8.00;;
78053;SDS011;67726;45.636;11.752;2023-05-10T10:02:47;12.30;;;7.03;;
78053;SDS011;67726;45.636;11.752;2023-05-10T10:05:19;12.07;;;7.40;;
78053;SDS011;67726;45.636;11.752;2023-05-10T10:07:45;16.00;;;10.70;;
78053;SDS011;67726;45.636;11.752;2023-05-10T10:10:10;18.40;;;10.98;;
78053;SDS011;67726;45.636;11.752;2023-05-10T10:12:38;11.25;;;7.72;;
78053;SDS011;67726;45.636;11.752;2023-05-10T10:15:04;14.20;;;9.48;;
78053;SDS011;67726;45.636;11.752;2023-05-10T10:17:32;12.68;;;8.90;;
78053;SDS011;67726;45.636;11.752;2023-05-10T10:20:00;12.57;;;8.27;;
78053;SDS011;67726;45.636;11.752;2023-05-10T10:22:28;13.77;;;7.22;;
78053;SDS011;67726;45.636;11.752;2023-05-10T10:24:55;10.63;;;6.72;;
78053;SDS011;67726;45.636;11.752;2023-05-10T10:27:24;9.97;;;6.47;;
78053;SDS011;67726;45.636;11.752;2023-05-10T10:30:01;11.98;;;6.68;;
78053;SDS011;67726;45.636;11.752;2023-05-10T10:32:42;10.20;;;6.68;;
78053;SDS011;67726;45.636;11.752;2023-05-10T10:35:14;11.88;;;7.03;;
78053;SDS011;67726;45.636;11.752;2023-05-10T10:37:44;14.48;;;7.63;;
78053;SDS011;67726;45.636;11.752;2023-05-10T10:42:56;14.43;;;8.27;;
78053;SDS011;67726;45.636;11.752;2023-05-10T10:45:23;13.88;;;8.07;;
78053;SDS011;67726;45.636;11.752;2023-05-10T10:50:47;14.05;;;8.57;;
78053;SDS011;67726;45.636;11.752;2023-05-10T10:53:12;13.70;;;8.70;;
78053;SDS011;67726;45.636;11.752;2023-05-10T10:55:47;13.37;;;7.90;;
78053;SDS011;67726;45.636;11.752;2023-05-10T10:58:31;12.13;;;7.95;;
78053;SDS011;67726;45.636;11.752;2023-05-10T11:01:19;14.93;;;8.70;;
78053;SDS011;67726;45.636;11.752;2023-05-10T11:06:32;13.95;;;8.90;;
78053;SDS011;67726;45.636;11.752;2023-05-10T11:08:58;12.30;;;8.30;;
78053;SDS011;67726;45.636;11.752;2023-05-10T11:11:32;13.15;;;8.20;;
78053;SDS011;67726;45.636;11.752;2023-05-10T11:14:03;12.45;;;7.78;;
78053;SDS011;67726;45.636;11.752;2023-05-10T11:16:40;13.73;;;8.55;;
78053;SDS011;67726;45.636;11.752;2023-05-10T11:19:08;15.27;;;9.27;;
78053;SDS011;67726;45.636;11.752;2023-05-10T11:21:45;11.83;;;7.33;;
78053;SDS011;67726;45.636;11.752;2023-05-10T11:24:30;11.57;;;7.32;;
78053;SDS011;67726;45.636;11.752;2023-05-10T11:26:56;13.50;;;8.35;;
78053;SDS011;67726;45.636;11.752;2023-05-10T11:29:22;12.23;;;7.75;;
78053;SDS011;67726;45.636;11.752;2023-05-10T11:31:48;14.07;;;8.63;;
78053;SDS011;67726;45.636;11.752;2023-05-10T11:34:24;16.58;;;10.20;;
78053;SDS011;67726;45.636;11.752;2023-05-10T11:36:52;15.63;;;9.40;;
78053;SDS011;67726;45.636;11.752;2023-05-10T11:39:20;14.68;;;8.50;;
78053;SDS011;67726;45.636;11.752;2023-05-10T11:41:49;14.60;;;8.45;;
78053;SDS011;67726;45.636;11.752;2023-05-10T11:44:15;14.90;;;8.83;;
78053;SDS011;67726;45.636;11.752;2023-05-10T11:46:41;14.25;;;8.50;;
78053;SDS011;67726;45.636;11.752;2023-05-10T11:49:07;12.80;;;8.15;;
78053;SDS011;67726;45.636;11.752;2023-05-10T11:51:33;12.37;;;7.90;;
78053;SDS011;67726;45.636;11.752;2023-05-10T11:54:08;16.70;;;9.77;;
78053;SDS011;67726;45.636;11.752;2023-05-10T11:56:37;18.00;;;9.55;;
78053;SDS011;67726;45.636;11.752;2023-05-10T11:59:04;12.93;;;7.93;;
78053;SDS011;67726;45.636;11.752;2023-05-10T12:01:29;11.93;;;7.77;;
78053;SDS011;67726;45.636;11.752;2023-05-10T12:03:56;15.95;;;8.57;;
78053;SDS011;67726;45.636;11.752;2023-05-10T12:06:29;13.10;;;7.82;;
78053;SDS011;67726;45.636;11.752;2023-05-10T12:08:57;14.95;;;8.82;;
78053;SDS011;67726;45.636;11.752;2023-05-10T12:11:26;13.68;;;7.88;;
78053;SDS011;67726;45.636;11.752;2023-05-10T12:13:53;14.70;;;8.97;;
78053;SDS011;67726;45.636;11.752;2023-05-10T12:16:20;14.27;;;8.65;;
78053;SDS011;67726;45.636;11.752;2023-05-10T12:18:48;14.63;;;9.43;;
78053;SDS011;67726;45.636;11.752;2023-05-10T12:21:14;14.65;;;9.20;;
78053;SDS011;67726;45.636;11.752;2023-05-10T12:23:40;14.48;;;8.70;;
78053;SDS011;67726;45.636;11.752;2023-05-10T12:26:06;18.20;;;10.17;;
78053;SDS011;67726;45.636;11.752;2023-05-10T12:28:35;16.55;;;9.25;;
78053;SDS011;67726;45.636;11.752;2023-05-10T12:31:02;15.35;;;9.63;;
78053;SDS011;67726;45.636;11.752;2023-05-10T12:33:34;15.93;;;9.88;;
78053;SDS011;67726;45.636;11.752;2023-05-10T12:36:08;15.90;;;8.80;;
78053;SDS011;67726;45.636;11.752;2023-05-10T12:38:39;16.35;;;9.50;;
78053;SDS011;67726;45.636;11.752;2023-05-10T12:41:17;20.25;;;10.40;;
78053;SDS011;67726;45.636;11.752;2023-05-10T12:43:43;16.67;;;9.25;;
78053;SDS011;67726;45.636;11.752;2023-05-10T12:46:14;17.23;;;9.05;;
78053;SDS011;67726;45.636;11.752;2023-05-10T12:48:41;17.53;;;10.20;;
78053;SDS011;67726;45.636;11.752;2023-05-10T12:51:08;17.42;;;10.05;;
78053;SDS011;67726;45.636;11.752;2023-05-10T12:53:35;18.10;;;10.32;;
78053;SDS011;67726;45.636;11.752;2023-05-10T12:56:01;16.90;;;9.57;;
78053;SDS011;67726;45.636;11.752;2023-05-10T12:58:27;20.07;;;10.03;;
78053;SDS011;67726;45.636;11.752;2023-05-10T13:00:52;19.95;;;10.52;;
78053;SDS011;67726;45.636;11.752;2023-05-10T13:03:18;18.57;;;10.07;;
78053;SDS011;67726;45.636;11.752;2023-05-10T13:05:44;18.08;;;10.10;;
78053;SDS011;67726;45.636;11.752;2023-05-10T13:08:10;17.30;;;9.82;;
78053;SDS011;67726;45.636;11.752;2023-05-10T13:10:36;20.20;;;10.70;;
78053;SDS011;67726;45.636;11.752;2023-05-10T13:13:01;17.67;;;10.55;;
78053;SDS011;67726;45.636;11.752;2023-05-10T13:15:27;21.65;;;10.98;;
78053;SDS011;67726;45.636;11.752;2023-05-10T13:17:53;20.13;;;10.70;;
78053;SDS011;67726;45.636;11.752;2023-05-10T13:20:19;20.17;;;11.70;;
78053;SDS011;67726;45.636;11.752;2023-05-10T13:22:45;20.75;;;11.57;;
78053;SDS011;67726;45.636;11.752;2023-05-10T13:25:11;23.63;;;11.73;;
78053;SDS011;67726;45.636;11.752;2023-05-10T13:27:38;20.70;;;12.02;;
78053;SDS011;67726;45.636;11.752;2023-05-10T13:30:04;25.40;;;12.93;;
78053;SDS011;67726;45.636;11.752;2023-05-10T13:32:31;22.58;;;12.15;;
78053;SDS011;67726;45.636;11.752;2023-05-10T13:34:56;20.73;;;11.50;;
78053;SDS011;67726;45.636;11.752;2023-05-10T13:37:22;21.03;;;11.23;;
78053;SDS011;67726;45.636;11.752;2023-05-10T13:39:48;19.13;;;10.98;;
78053;SDS011;67726;45.636;11.752;2023-05-10T13:42:13;20.47;;;11.60;;
78053;SDS011;67726;45.636;11.752;2023-05-10T13:44:39;19.27;;;11.30;;
78053;SDS011;67726;45.636;11.752;2023-05-10T13:47:05;21.95;;;11.73;;
78053;SDS011;67726;45.636;11.752;2023-05-10T13:49:31;23.13;;;12.13;;
78053;SDS011;67726;45.636;11.752;2023-05-10T13:51:57;22.60;;;12.52;;
78053;SDS011;67726;45.636;11.752;2023-05-10T13:54:23;22.27;;;11.33;;
78053;SDS011;67726;45.636;11.752;2023-05-10T13:56:48;23.20;;;12.63;;
78053;SDS011;67726;45.636;11.752;2023-05-10T13:59:14;22.65;;;12.00;;
78053;SDS011;67726;45.636;11.752;2023-05-10T14:01:40;21.98;;;11.38;;
78053;SDS011;67726;45.636;11.752;2023-05-10T14:04:07;26.57;;;12.67;;
78053;SDS011;67726;45.636;11.752;2023-05-10T14:06:35;24.55;;;12.52;;
78053;SDS011;67726;45.636;11.752;2023-05-10T14:09:01;23.80;;;11.75;;
78053;SDS011;67726;45.636;11.752;2023-05-10T14:11:28;23.60;;;11.73;;
78053;SDS011;67726;45.636;11.752;2023-05-10T14:13:53;22.17;;;11.97;;
78053;SDS011;67726;45.636;11.752;2023-05-10T14:16:19;23.75;;;11.93;;
78053;SDS011;67726;45.636;11.752;2023-05-10T14:18:45;19.40;;;11.82;;
78053;SDS011;67726;45.636;11.752;2023-05-10T14:21:11;22.17;;;11.82;;
78053;SDS011;67726;45.636;11.752;2023-05-10T14:23:37;22.07;;;12.63;;
78053;SDS011;67726;45.636;11.752;2023-05-10T14:26:03;24.20;;;13.48;;
78053;SDS011;67726;45.636;11.752;2023-05-10T14:28:28;26.40;;;12.97;;
78053;SDS011;67726;45.636;11.752;2023-05-10T14:30:54;17.55;;;11.35;;
78053;SDS011;67726;45.636;11.752;2023-05-10T14:33:20;20.30;;;12.43;;
78053;SDS011;67726;45.636;11.752;2023-05-10T14:35:46;22.17;;;12.38;;
78053;SDS011;67726;45.636;11.752;2023-05-10T14:38:12;22.45;;;13.27;;
78053;SDS011;67726;45.636;11.752;2023-05-10T14:40:38;23.17;;;12.43;;
78053;SDS011;67726;45.636;11.752;2023-05-10T14:43:04;22.88;;;13.90;;
78053;SDS011;67726;45.636;11.752;2023-05-10T14:45:30;22.80;;;14.00;;
78053;SDS011;67726;45.636;11.752;2023-05-10T14:47:56;24.60;;;13.77;;
78053;SDS011;67726;45.636;11.752;2023-05-10T14:50:22;21.38;;;14.25;;
78053;SDS011;67726;45.636;11.752;2023-05-10T14:52:48;26.35;;;15.60;;
78053;SDS011;67726;45.636;11.752;2023-05-10T14:55:15;35.13;;;18.23;;